sensor_id;sensor_type;location;lat;lon;timestamp;P1;P2;P0
73749;PMS7003;62058;48.406;-4.514;2023-05-17T00:01:59;0.00;0.00;0.00
73749;PMS7003;62058;48.406;-4.514;2023-05-17T00:04:25;0.00;0.00;0.00
73749;PMS7003;62058;48.406;-4.514;2023-05-17T00:06:50;0.00;0.00;0.00
73749;PMS7003;62058;48.406;-4.514;2023-05-17T00:09:15;0.00;0.00;0.00
73749;PMS7003;62058;48.406;-4.514;2023-05-17T00:11:40;0.00;0.00;0.00
73749;PMS7003;62058;48.406;-4.514;2023-05-17T00:14:06;0.00;0.00;0.00
73749;PMS7003;62058;48.406;-4.514;2023-05-17T00:16:31;0.00;0.00;0.00
73749;PMS7003;62058;48.406;-4.514;2023-05-17T00:18:56;0.00;0.00;0.00
73749;PMS7003;62058;48.406;-4.514;2023-05-17T00:21:21;0.00;0.00;0.00
73749;PMS7003;62058;48.406;-4.514;2023-05-17T00:23:47;0.00;0.00;0.00
73749;PMS7003;62058;48.406;-4.514;2023-05-17T00:26:12;0.00;0.00;0.00
73749;PMS7003;62058;48.406;-4.514;2023-05-17T00:28:37;0.00;0.00;0.00
73749;PMS7003;62058;48.406;-4.514;2023-05-17T00:31:03;0.00;0.00;0.00
73749;PMS7003;62058;48.406;-4.514;2023-05-17T00:33:28;0.00;0.00;0.00
73749;PMS7003;62058;48.406;-4.514;2023-05-17T00:35:53;0.00;0.00;0.00
73749;PMS7003;62058;48.406;-4.514;2023-05-17T00:38:18;0.00;0.00;0.00
73749;PMS7003;62058;48.406;-4.514;2023-05-17T00:40:44;0.00;0.00;0.00
73749;PMS7003;62058;48.406;-4.514;2023-05-17T00:43:09;0.00;0.00;0.00
73749;PMS7003;62058;48.406;-4.514;2023-05-17T00:45:35;0.00;0.00;0.00
73749;PMS7003;62058;48.406;-4.514;2023-05-17T00:48:00;0.00;0.00;0.00
73749;PMS7003;62058;48.406;-4.514;2023-05-17T00:50:25;0.00;0.00;0.00
73749;PMS7003;62058;48.406;-4.514;2023-05-17T00:52:51;0.00;0.00;0.00
73749;PMS7003;62058;48.406;-4.514;2023-05-17T00:55:16;0.00;0.00;0.00
73749;PMS7003;62058;48.406;-4.514;2023-05-17T00:57:43;0.00;0.00;0.00
73749;PMS7003;62058;48.406;-4.514;2023-05-17T01:00:09;0.00;0.00;0.00
73749;PMS7003;62058;48.406;-4.514;2023-05-17T01:02:34;0.00;0.00;0.00
73749;PMS7003;62058;48.406;-4.514;2023-05-17T01:04:59;0.00;0.00;0.00
73749;PMS7003;62058;48.406;-4.514;2023-05-17T01:07:25;0.00;0.00;0.00
73749;PMS7003;62058;48.406;-4.514;2023-05-17T01:09:50;0.00;0.00;0.00
73749;PMS7003;62058;48.406;-4.514;2023-05-17T01:17:17;0.00;0.00;0.00
73749;PMS7003;62058;48.406;-4.514;2023-05-17T01:27:25;0.00;0.00;0.00
73749;PMS7003;62058;48.406;-4.514;2023-05-17T01:29:51;0.00;0.00;0.00
73749;PMS7003;62058;48.406;-4.514;2023-05-17T01:32:19;0.00;0.00;0.00
73749;PMS7003;62058;48.406;-4.514;2023-05-17T01:34:45;0.00;0.00;0.00
73749;PMS7003;62058;48.406;-4.514;2023-05-17T01:37:10;0.00;0.00;0.00
73749;PMS7003;62058;48.406;-4.514;2023-05-17T01:39:35;0.00;0.00;0.00
73749;PMS7003;62058;48.406;-4.514;2023-05-17T01:44:35;0.00;0.00;0.00
73749;PMS7003;62058;48.406;-4.514;2023-05-17T01:47:08;0.00;0.00;0.00
73749;PMS7003;62058;48.406;-4.514;2023-05-17T01:49:37;0.00;0.00;0.00
73749;PMS7003;62058;48.406;-4.514;2023-05-17T01:54:36;0.00;0.00;0.00
73749;PMS7003;62058;48.406;-4.514;2023-05-17T01:57:03;0.00;0.00;0.00
73749;PMS7003;62058;48.406;-4.514;2023-05-17T01:59:28;0.00;0.00;0.00
73749;PMS7003;62058;48.406;-4.514;2023-05-17T02:01:56;0.00;0.00;0.00
73749;PMS7003;62058;48.406;-4.514;2023-05-17T02:04:22;0.00;0.00;0.00
73749;PMS7003;62058;48.406;-4.514;2023-05-17T02:06:48;0.00;0.00;0.00
73749;PMS7003;62058;48.406;-4.514;2023-05-17T02:09:13;0.00;0.00;0.00
73749;PMS7003;62058;48.406;-4.514;2023-05-17T02:11:38;0.00;0.00;0.00
73749;PMS7003;62058;48.406;-4.514;2023-05-17T02:14:03;0.00;0.00;0.00
73749;PMS7003;62058;48.406;-4.514;2023-05-17T02:16:29;0.00;0.00;0.00
73749;PMS7003;62058;48.406;-4.514;2023-05-17T02:18:54;0.00;0.00;0.00
73749;PMS7003;62058;48.406;-4.514;2023-05-17T02:21:20;0.00;0.00;0.00
73749;PMS7003;62058;48.406;-4.514;2023-05-17T02:23:45;0.00;0.00;0.00
73749;PMS7003;62058;48.406;-4.514;2023-05-17T02:26:10;0.00;0.00;0.00
73749;PMS7003;62058;48.406;-4.514;2023-05-17T02:28:35;0.00;0.00;0.00
73749;PMS7003;62058;48.406;-4.514;2023-05-17T02:31:01;0.00;0.00;0.00
73749;PMS7003;62058;48.406;-4.514;2023-05-17T02:33:26;0.00;0.00;0.00
73749;PMS7003;62058;48.406;-4.514;2023-05-17T02:35:51;0.00;0.00;0.00
73749;PMS7003;62058;48.406;-4.514;2023-05-17T02:38:17;0.00;0.00;0.00
73749;PMS7003;62058;48.406;-4.514;2023-05-17T02:40:42;0.00;0.00;0.00
73749;PMS7003;62058;48.406;-4.514;2023-05-17T02:43:07;0.00;0.00;0.00
73749;PMS7003;62058;48.406;-4.514;2023-05-17T02:45:33;0.00;0.00;0.00
73749;PMS7003;62058;48.406;-4.514;2023-05-17T02:47:58;0.00;0.00;0.00
73749;PMS7003;62058;48.406;-4.514;2023-05-17T02:50:23;0.00;0.00;0.00
73749;PMS7003;62058;48.406;-4.514;2023-05-17T02:52:49;0.00;0.00;0.00
73749;PMS7003;62058;48.406;-4.514;2023-05-17T02:55:14;0.00;0.00;0.00
73749;PMS7003;62058;48.406;-4.514;2023-05-17T02:57:40;0.00;0.00;0.00
73749;PMS7003;62058;48.406;-4.514;2023-05-17T03:00:05;0.00;0.00;0.00
73749;PMS7003;62058;48.406;-4.514;2023-05-17T03:02:31;0.00;0.00;0.00
73749;PMS7003;62058;48.406;-4.514;2023-05-17T03:04:56;0.00;0.00;0.00
73749;PMS7003;62058;48.406;-4.514;2023-05-17T03:07:21;0.00;0.00;0.00
73749;PMS7003;62058;48.406;-4.514;2023-05-17T03:09:46;0.00;0.00;0.00
73749;PMS7003;62058;48.406;-4.514;2023-05-17T03:12:12;0.00;0.00;0.00
73749;PMS7003;62058;48.406;-4.514;2023-05-17T03:14:37;0.00;0.00;0.00
73749;PMS7003;62058;48.406;-4.514;2023-05-17T03:17:02;0.00;0.00;0.00
73749;PMS7003;62058;48.406;-4.514;2023-05-17T03:19:27;0.00;0.00;0.00
73749;PMS7003;62058;48.406;-4.514;2023-05-17T03:21:53;0.00;0.00;0.00
73749;PMS7003;62058;48.406;-4.514;2023-05-17T03:24:18;0.00;0.00;0.00
73749;PMS7003;62058;48.406;-4.514;2023-05-17T03:26:43;0.00;0.00;0.00
73749;PMS7003;62058;48.406;-4.514;2023-05-17T03:29:08;0.00;0.00;0.00
73749;PMS7003;62058;48.406;-4.514;2023-05-17T03:31:34;0.00;0.00;0.00
73749;PMS7003;62058;48.406;-4.514;2023-05-17T03:33:59;0.00;0.00;0.00
73749;PMS7003;62058;48.406;-4.514;2023-05-17T03:36:25;0.00;0.00;0.00
73749;PMS7003;62058;48.406;-4.514;2023-05-17T03:38:50;0.00;0.00;0.00
73749;PMS7003;62058;48.406;-4.514;2023-05-17T03:41:15;0.00;0.00;0.00
73749;PMS7003;62058;48.406;-4.514;2023-05-17T03:43:42;0.00;0.00;0.00
73749;PMS7003;62058;48.406;-4.514;2023-05-17T03:46:07;0.00;0.00;0.00
73749;PMS7003;62058;48.406;-4.514;2023-05-17T03:48:33;0.00;0.00;0.00
73749;PMS7003;62058;48.406;-4.514;2023-05-17T03:50:58;0.00;0.00;0.00
73749;PMS7003;62058;48.406;-4.514;2023-05-17T03:53:23;0.00;0.00;0.00
73749;PMS7003;62058;48.406;-4.514;2023-05-17T03:55:48;0.00;0.00;0.00
73749;PMS7003;62058;48.406;-4.514;2023-05-17T03:58:14;0.00;0.00;0.00
73749;PMS7003;62058;48.406;-4.514;2023-05-17T04:00:39;0.00;0.00;0.00
73749;PMS7003;62058;48.406;-4.514;2023-05-17T04:03:05;0.00;0.00;0.00
73749;PMS7003;62058;48.406;-4.514;2023-05-17T04:05:30;0.00;0.00;0.00
73749;PMS7003;62058;48.406;-4.514;2023-05-17T04:07:55;0.00;0.00;0.00
73749;PMS7003;62058;48.406;-4.514;2023-05-17T04:10:20;0.00;0.00;0.00
73749;PMS7003;62058;48.406;-4.514;2023-05-17T04:12:46;0.00;0.00;0.00
73749;PMS7003;62058;48.406;-4.514;2023-05-17T04:15:11;0.00;0.00;0.00
73749;PMS7003;62058;48.406;-4.514;2023-05-17T04:17:36;0.00;0.00;0.00
73749;PMS7003;62058;48.406;-4.514;2023-05-17T04:20:02;0.00;0.00;0.00
73749;PMS7003;62058;48.406;-4.514;2023-05-17T04:22:30;0.00;0.00;0.00
73749;PMS7003;62058;48.406;-4.514;2023-05-17T04:24:55;0.00;0.00;0.00
73749;PMS7003;62058;48.406;-4.514;2023-05-17T04:27:20;0.00;0.00;0.00
73749;PMS7003;62058;48.406;-4.514;2023-05-17T04:29:46;0.00;0.00;0.00
73749;PMS7003;62058;48.406;-4.514;2023-05-17T04:32:11;0.00;0.00;0.00
73749;PMS7003;62058;48.406;-4.514;2023-05-17T04:34:36;0.00;0.00;0.00
73749;PMS7003;62058;48.406;-4.514;2023-05-17T04:37:02;0.00;0.00;0.00
73749;PMS7003;62058;48.406;-4.514;2023-05-17T04:39:27;0.00;0.00;0.00
73749;PMS7003;62058;48.406;-4.514;2023-05-17T04:41:53;0.00;0.00;0.00
73749;PMS7003;62058;48.406;-4.514;2023-05-17T04:44:18;0.00;0.00;0.00
73749;PMS7003;62058;48.406;-4.514;2023-05-17T04:46:43;0.00;0.00;0.00
73749;PMS7003;62058;48.406;-4.514;2023-05-17T04:49:09;0.00;0.00;0.00
73749;PMS7003;62058;48.406;-4.514;2023-05-17T04:51:35;0.00;0.00;0.00
73749;PMS7003;62058;48.406;-4.514;2023-05-17T04:54:00;0.00;0.00;0.00
73749;PMS7003;62058;48.406;-4.514;2023-05-17T04:56:26;0.00;0.00;0.00
73749;PMS7003;62058;48.406;-4.514;2023-05-17T04:58:52;0.00;0.00;0.00
73749;PMS7003;62058;48.406;-4.514;2023-05-17T05:01:17;0.00;0.00;0.00
73749;PMS7003;62058;48.406;-4.514;2023-05-17T05:03:42;0.00;0.00;0.00
73749;PMS7003;62058;48.406;-4.514;2023-05-17T05:06:07;0.00;0.00;0.00
73749;PMS7003;62058;48.406;-4.514;2023-05-17T05:08:33;0.00;0.00;0.00
73749;PMS7003;62058;48.406;-4.514;2023-05-17T05:10:58;0.00;0.00;0.00
73749;PMS7003;62058;48.406;-4.514;2023-05-17T05:13:23;0.00;0.00;0.00
73749;PMS7003;62058;48.406;-4.514;2023-05-17T05:15:49;0.00;0.00;0.00
73749;PMS7003;62058;48.406;-4.514;2023-05-17T05:18:14;0.00;0.00;0.00
73749;PMS7003;62058;48.406;-4.514;2023-05-17T05:20:40;0.00;0.00;0.00
73749;PMS7003;62058;48.406;-4.514;2023-05-17T05:23:05;0.00;0.00;0.00
73749;PMS7003;62058;48.406;-4.514;2023-05-17T05:25:30;0.00;0.00;0.00
73749;PMS7003;62058;48.406;-4.514;2023-05-17T05:27:56;0.00;0.00;0.00
73749;PMS7003;62058;48.406;-4.514;2023-05-17T05:30:21;0.00;0.00;0.00
73749;PMS7003;62058;48.406;-4.514;2023-05-17T05:32:47;0.00;0.00;0.00
73749;PMS7003;62058;48.406;-4.514;2023-05-17T05:35:13;0.00;0.00;0.00
73749;PMS7003;62058;48.406;-4.514;2023-05-17T05:37:39;0.00;0.00;0.00
73749;PMS7003;62058;48.406;-4.514;2023-05-17T05:40:04;0.00;0.00;0.00
73749;PMS7003;62058;48.406;-4.514;2023-05-17T05:42:30;0.00;0.00;0.00
73749;PMS7003;62058;48.406;-4.514;2023-05-17T05:44:55;0.00;0.00;0.00
73749;PMS7003;62058;48.406;-4.514;2023-05-17T05:47:20;0.00;0.00;0.00
73749;PMS7003;62058;48.406;-4.514;2023-05-17T05:49:45;0.00;0.00;0.00
73749;PMS7003;62058;48.406;-4.514;2023-05-17T05:52:11;0.00;0.00;0.00
73749;PMS7003;62058;48.406;-4.514;2023-05-17T05:54:36;0.00;0.00;0.00
73749;PMS7003;62058;48.406;-4.514;2023-05-17T05:57:01;0.00;0.00;0.00
73749;PMS7003;62058;48.406;-4.514;2023-05-17T05:59:26;0.00;0.00;0.00
73749;PMS7003;62058;48.406;-4.514;2023-05-17T06:01:52;0.00;0.00;0.00
73749;PMS7003;62058;48.406;-4.514;2023-05-17T06:04:17;0.00;0.00;0.00
73749;PMS7003;62058;48.406;-4.514;2023-05-17T06:06:42;0.00;0.00;0.00
73749;PMS7003;62058;48.406;-4.514;2023-05-17T06:09:08;0.00;0.00;0.00
73749;PMS7003;62058;48.406;-4.514;2023-05-17T06:11:36;0.00;0.00;0.00
73749;PMS7003;62058;48.406;-4.514;2023-05-17T06:14:01;0.00;0.00;0.00
73749;PMS7003;62058;48.406;-4.514;2023-05-17T06:16:26;0.00;0.00;0.00
73749;PMS7003;62058;48.406;-4.514;2023-05-17T06:18:52;0.00;0.00;0.00
73749;PMS7003;62058;48.406;-4.514;2023-05-17T06:21:17;0.00;0.00;0.00
73749;PMS7003;62058;48.406;-4.514;2023-05-17T06:23:42;0.00;0.00;0.00
73749;PMS7003;62058;48.406;-4.514;2023-05-17T06:26:07;0.00;0.00;0.00
73749;PMS7003;62058;48.406;-4.514;2023-05-17T06:28:34;0.00;0.00;0.00
73749;PMS7003;62058;48.406;-4.514;2023-05-17T06:31:00;0.00;0.00;0.00
73749;PMS7003;62058;48.406;-4.514;2023-05-17T06:33:25;0.00;0.00;0.00
73749;PMS7003;62058;48.406;-4.514;2023-05-17T06:35:50;0.00;0.00;0.00
73749;PMS7003;62058;48.406;-4.514;2023-05-17T06:38:15;0.00;0.00;0.00
73749;PMS7003;62058;48.406;-4.514;2023-05-17T06:40:41;0.00;0.00;0.00
73749;PMS7003;62058;48.406;-4.514;2023-05-17T06:43:06;0.00;0.00;0.00
73749;PMS7003;62058;48.406;-4.514;2023-05-17T06:45:31;0.00;0.00;0.00
73749;PMS7003;62058;48.406;-4.514;2023-05-17T06:47:56;0.00;0.00;0.00
73749;PMS7003;62058;48.406;-4.514;2023-05-17T06:50:22;0.00;0.00;0.00
73749;PMS7003;62058;48.406;-4.514;2023-05-17T06:52:47;0.00;0.00;0.00
73749;PMS7003;62058;48.406;-4.514;2023-05-17T06:55:12;0.00;0.00;0.00
73749;PMS7003;62058;48.406;-4.514;2023-05-17T06:57:37;0.00;0.00;0.00
73749;PMS7003;62058;48.406;-4.514;2023-05-17T07:00:03;0.00;0.00;0.00
73749;PMS7003;62058;48.406;-4.514;2023-05-17T07:02:34;0.00;0.00;0.00
73749;PMS7003;62058;48.406;-4.514;2023-05-17T07:04:59;0.00;0.00;0.00
73749;PMS7003;62058;48.406;-4.514;2023-05-17T07:07:25;0.00;0.00;0.00
73749;PMS7003;62058;48.406;-4.514;2023-05-17T07:09:50;0.00;0.00;0.00
73749;PMS7003;62058;48.406;-4.514;2023-05-17T07:12:15;0.00;0.00;0.00
73749;PMS7003;62058;48.406;-4.514;2023-05-17T07:14:40;0.00;0.00;0.00
73749;PMS7003;62058;48.406;-4.514;2023-05-17T07:17:06;0.00;0.00;0.00
73749;PMS7003;62058;48.406;-4.514;2023-05-17T07:19:31;0.00;0.00;0.00
73749;PMS7003;62058;48.406;-4.514;2023-05-17T07:21:56;0.00;0.00;0.00
73749;PMS7003;62058;48.406;-4.514;2023-05-17T07:24:21;0.00;0.00;0.00
73749;PMS7003;62058;48.406;-4.514;2023-05-17T07:26:47;0.00;0.00;0.00
73749;PMS7003;62058;48.406;-4.514;2023-05-17T07:29:12;0.00;0.00;0.00
73749;PMS7003;62058;48.406;-4.514;2023-05-17T07:31:37;0.00;0.00;0.00
73749;PMS7003;62058;48.406;-4.514;2023-05-17T07:34:03;0.00;0.00;0.00
73749;PMS7003;62058;48.406;-4.514;2023-05-17T07:36:28;0.00;0.00;0.00
73749;PMS7003;62058;48.406;-4.514;2023-05-17T07:38:55;0.00;0.00;0.00
73749;PMS7003;62058;48.406;-4.514;2023-05-17T07:41:20;0.00;0.00;0.00
73749;PMS7003;62058;48.406;-4.514;2023-05-17T07:43:47;0.00;0.00;0.00
73749;PMS7003;62058;48.406;-4.514;2023-05-17T07:46:12;0.00;0.00;0.00
73749;PMS7003;62058;48.406;-4.514;2023-05-17T07:48:37;0.00;0.00;0.00
73749;PMS7003;62058;48.406;-4.514;2023-05-17T07:51:03;0.00;0.00;0.00
73749;PMS7003;62058;48.406;-4.514;2023-05-17T07:53:28;0.00;0.00;0.00
73749;PMS7003;62058;48.406;-4.514;2023-05-17T07:55:53;0.00;0.00;0.00
73749;PMS7003;62058;48.406;-4.514;2023-05-17T07:58:18;0.00;0.00;0.00
73749;PMS7003;62058;48.406;-4.514;2023-05-17T08:00:44;0.00;0.00;0.00
73749;PMS7003;62058;48.406;-4.514;2023-05-17T08:03:09;0.00;0.00;0.00
73749;PMS7003;62058;48.406;-4.514;2023-05-17T08:05:34;0.00;0.00;0.00
73749;PMS7003;62058;48.406;-4.514;2023-05-17T08:07:59;0.00;0.00;0.00
73749;PMS7003;62058;48.406;-4.514;2023-05-17T08:10:25;0.00;0.00;0.00
73749;PMS7003;62058;48.406;-4.514;2023-05-17T08:12:51;0.00;0.00;0.00
73749;PMS7003;62058;48.406;-4.514;2023-05-17T08:15:17;0.00;0.00;0.00
73749;PMS7003;62058;48.406;-4.514;2023-05-17T08:17:42;0.00;0.00;0.00
73749;PMS7003;62058;48.406;-4.514;2023-05-17T08:20:07;0.00;0.00;0.00
73749;PMS7003;62058;48.406;-4.514;2023-05-17T08:22:33;0.00;0.00;0.00
73749;PMS7003;62058;48.406;-4.514;2023-05-17T08:24:58;0.00;0.00;0.00
73749;PMS7003;62058;48.406;-4.514;2023-05-17T08:27:23;0.00;0.00;0.00
73749;PMS7003;62058;48.406;-4.514;2023-05-17T08:29:50;0.00;0.00;0.00
73749;PMS7003;62058;48.406;-4.514;2023-05-17T08:32:17;0.00;0.00;0.00
73749;PMS7003;62058;48.406;-4.514;2023-05-17T08:34:43;0.00;0.00;0.00
73749;PMS7003;62058;48.406;-4.514;2023-05-17T08:37:08;0.00;0.00;0.00
73749;PMS7003;62058;48.406;-4.514;2023-05-17T08:39:33;0.00;0.00;0.00
73749;PMS7003;62058;48.406;-4.514;2023-05-17T08:41:59;0.00;0.00;0.00
73749;PMS7003;62058;48.406;-4.514;2023-05-17T08:44:26;0.00;0.00;0.00
73749;PMS7003;62058;48.406;-4.514;2023-05-17T08:46:52;0.00;0.00;0.00
73749;PMS7003;62058;48.406;-4.514;2023-05-17T08:49:19;0.00;0.00;0.00
73749;PMS7003;62058;48.406;-4.514;2023-05-17T08:51:48;0.00;0.00;0.00
73749;PMS7003;62058;48.406;-4.514;2023-05-17T08:54:13;0.00;0.00;0.00
73749;PMS7003;62058;48.406;-4.514;2023-05-17T08:56:39;0.00;0.00;0.00
73749;PMS7003;62058;48.406;-4.514;2023-05-17T08:59:06;0.00;0.00;0.00
73749;PMS7003;62058;48.406;-4.514;2023-05-17T09:01:32;0.00;0.00;0.00
73749;PMS7003;62058;48.406;-4.514;2023-05-17T09:03:58;0.00;0.00;0.00
73749;PMS7003;62058;48.406;-4.514;2023-05-17T09:06:24;0.00;0.00;0.00
73749;PMS7003;62058;48.406;-4.514;2023-05-17T09:08:49;0.00;0.00;0.00
73749;PMS7003;62058;48.406;-4.514;2023-05-17T09:11:26;0.00;0.00;0.00
73749;PMS7003;62058;48.406;-4.514;2023-05-17T09:13:51;0.00;0.00;0.00
73749;PMS7003;62058;48.406;-4.514;2023-05-17T09:16:17;0.00;0.00;0.00
73749;PMS7003;62058;48.406;-4.514;2023-05-17T09:18:51;0.00;0.00;0.00
73749;PMS7003;62058;48.406;-4.514;2023-05-17T09:21:17;0.00;0.00;0.00
73749;PMS7003;62058;48.406;-4.514;2023-05-17T09:23:42;0.00;0.00;0.00
73749;PMS7003;62058;48.406;-4.514;2023-05-17T09:26:10;0.00;0.00;0.00
73749;PMS7003;62058;48.406;-4.514;2023-05-17T09:28:38;0.00;0.00;0.00
73749;PMS7003;62058;48.406;-4.514;2023-05-17T09:31:04;0.00;0.00;0.00
73749;PMS7003;62058;48.406;-4.514;2023-05-17T09:33:30;0.00;0.00;0.00
73749;PMS7003;62058;48.406;-4.514;2023-05-17T09:35:55;0.00;0.00;0.00
73749;PMS7003;62058;48.406;-4.514;2023-05-17T09:38:24;0.00;0.00;0.00
73749;PMS7003;62058;48.406;-4.514;2023-05-17T09:40:49;0.00;0.00;0.00
73749;PMS7003;62058;48.406;-4.514;2023-05-17T09:43:14;0.00;0.00;0.00
73749;PMS7003;62058;48.406;-4.514;2023-05-17T09:45:40;0.00;0.00;0.00
73749;PMS7003;62058;48.406;-4.514;2023-05-17T09:48:15;0.00;0.00;0.00
73749;PMS7003;62058;48.406;-4.514;2023-05-17T09:50:45;0.00;0.00;0.00
73749;PMS7003;62058;48.406;-4.514;2023-05-17T09:53:31;0.00;0.00;0.00
73749;PMS7003;62058;48.406;-4.514;2023-05-17T09:55:56;0.00;0.00;0.00
73749;PMS7003;62058;48.406;-4.514;2023-05-17T09:58:22;0.00;0.00;0.00
73749;PMS7003;62058;48.406;-4.514;2023-05-17T10:00:52;0.00;0.00;0.00
73749;PMS7003;62058;48.406;-4.514;2023-05-17T10:03:20;0.00;0.00;0.00
73749;PMS7003;62058;48.406;-4.514;2023-05-17T10:05:46;0.00;0.00;0.00
73749;PMS7003;62058;48.406;-4.514;2023-05-17T10:08:14;0.00;0.00;0.00
73749;PMS7003;62058;48.406;-4.514;2023-05-17T10:10:41;0.00;0.00;0.00
73749;PMS7003;62058;48.406;-4.514;2023-05-17T10:13:09;0.00;0.00;0.00
73749;PMS7003;62058;48.406;-4.514;2023-05-17T10:15:36;0.00;0.00;0.00
73749;PMS7003;62058;48.406;-4.514;2023-05-17T10:18:02;0.00;0.00;0.00
73749;PMS7003;62058;48.406;-4.514;2023-05-17T10:20:28;0.00;0.00;0.00
73749;PMS7003;62058;48.406;-4.514;2023-05-17T10:22:53;0.00;0.00;0.00
73749;PMS7003;62058;48.406;-4.514;2023-05-17T10:25:20;0.00;0.00;0.00
73749;PMS7003;62058;48.406;-4.514;2023-05-17T10:27:45;0.00;0.00;0.00
73749;PMS7003;62058;48.406;-4.514;2023-05-17T10:30:14;0.00;0.00;0.00
73749;PMS7003;62058;48.406;-4.514;2023-05-17T10:32:40;0.00;0.00;0.00
73749;PMS7003;62058;48.406;-4.514;2023-05-17T10:35:06;0.00;0.00;0.00
73749;PMS7003;62058;48.406;-4.514;2023-05-17T10:37:33;0.00;0.00;0.00
73749;PMS7003;62058;48.406;-4.514;2023-05-17T10:39:58;0.00;0.00;0.00
73749;PMS7003;62058;48.406;-4.514;2023-05-17T10:42:24;0.00;0.00;0.00
73749;PMS7003;62058;48.406;-4.514;2023-05-17T10:44:51;0.00;0.00;0.00
73749;PMS7003;62058;48.406;-4.514;2023-05-17T10:47:17;0.00;0.00;0.00
73749;PMS7003;62058;48.406;-4.514;2023-05-17T10:49:43;0.00;0.00;0.00
73749;PMS7003;62058;48.406;-4.514;2023-05-17T10:52:15;0.00;0.00;0.00
73749;PMS7003;62058;48.406;-4.514;2023-05-17T10:54:41;0.00;0.00;0.00
73749;PMS7003;62058;48.406;-4.514;2023-05-17T10:57:07;0.00;0.00;0.00
73749;PMS7003;62058;48.406;-4.514;2023-05-17T10:59:32;0.00;0.00;0.00
73749;PMS7003;62058;48.406;-4.514;2023-05-17T11:07:29;0.00;0.00;0.00
73749;PMS7003;62058;48.406;-4.514;2023-05-17T11:12:14;0.00;0.00;0.00
73749;PMS7003;62058;48.406;-4.514;2023-05-17T11:17:15;0.00;0.00;0.00
73749;PMS7003;62058;48.406;-4.514;2023-05-17T11:22:25;0.00;0.00;0.00
73749;PMS7003;62058;48.406;-4.514;2023-05-17T11:24:52;0.00;0.00;0.00
73749;PMS7003;62058;48.406;-4.514;2023-05-17T11:27:18;0.00;0.00;0.00
73749;PMS7003;62058;48.406;-4.514;2023-05-17T11:29:47;0.00;0.00;0.00
73749;PMS7003;62058;48.406;-4.514;2023-05-17T11:32:12;0.00;0.00;0.00
73749;PMS7003;62058;48.406;-4.514;2023-05-17T11:34:37;0.00;0.00;0.00
73749;PMS7003;62058;48.406;-4.514;2023-05-17T11:37:03;0.00;0.00;0.00
73749;PMS7003;62058;48.406;-4.514;2023-05-17T11:39:30;0.00;0.00;0.00
73749;PMS7003;62058;48.406;-4.514;2023-05-17T11:41:56;0.00;0.00;0.00
73749;PMS7003;62058;48.406;-4.514;2023-05-17T11:44:22;0.00;0.00;0.00
73749;PMS7003;62058;48.406;-4.514;2023-05-17T11:46:49;0.00;0.00;0.00
73749;PMS7003;62058;48.406;-4.514;2023-05-17T11:49:14;0.00;0.00;0.00
73749;PMS7003;62058;48.406;-4.514;2023-05-17T11:51:40;0.00;0.00;0.00
73749;PMS7003;62058;48.406;-4.514;2023-05-17T11:54:06;0.00;0.00;0.00
73749;PMS7003;62058;48.406;-4.514;2023-05-17T11:56:33;0.00;0.00;0.00
73749;PMS7003;62058;48.406;-4.514;2023-05-17T11:58:58;0.00;0.00;0.00
73749;PMS7003;62058;48.406;-4.514;2023-05-17T12:01:24;0.00;0.00;0.00
73749;PMS7003;62058;48.406;-4.514;2023-05-17T12:03:54;0.00;0.00;0.00
73749;PMS7003;62058;48.406;-4.514;2023-05-17T12:06:20;0.00;0.00;0.00
73749;PMS7003;62058;48.406;-4.514;2023-05-17T12:08:45;0.00;0.00;0.00
73749;PMS7003;62058;48.406;-4.514;2023-05-17T12:11:12;0.00;0.00;0.00
73749;PMS7003;62058;48.406;-4.514;2023-05-17T12:13:38;0.00;0.00;0.00
73749;PMS7003;62058;48.406;-4.514;2023-05-17T12:16:15;0.00;0.00;0.00
73749;PMS7003;62058;48.406;-4.514;2023-05-17T12:18:46;0.00;0.00;0.00
73749;PMS7003;62058;48.406;-4.514;2023-05-17T12:21:12;0.00;0.00;0.00
73749;PMS7003;62058;48.406;-4.514;2023-05-17T12:23:41;0.00;0.00;0.00
73749;PMS7003;62058;48.406;-4.514;2023-05-17T12:26:13;0.00;0.00;0.00
73749;PMS7003;62058;48.406;-4.514;2023-05-17T12:28:40;0.00;0.00;0.00
73749;PMS7003;62058;48.406;-4.514;2023-05-17T12:31:07;0.00;0.00;0.00
73749;PMS7003;62058;48.406;-4.514;2023-05-17T12:33:34;0.00;0.00;0.00
73749;PMS7003;62058;48.406;-4.514;2023-05-17T12:36:00;0.00;0.00;0.00
73749;PMS7003;62058;48.406;-4.514;2023-05-17T12:38:26;0.00;0.00;0.00
73749;PMS7003;62058;48.406;-4.514;2023-05-17T12:40:53;0.00;0.00;0.00
73749;PMS7003;62058;48.406;-4.514;2023-05-17T12:43:18;0.00;0.00;0.00
73749;PMS7003;62058;48.406;-4.514;2023-05-17T12:45:48;0.00;0.00;0.00
73749;PMS7003;62058;48.406;-4.514;2023-05-17T12:48:13;0.00;0.00;0.00
73749;PMS7003;62058;48.406;-4.514;2023-05-17T12:50:40;0.00;0.00;0.00
73749;PMS7003;62058;48.406;-4.514;2023-05-17T12:53:08;0.00;0.00;0.00
73749;PMS7003;62058;48.406;-4.514;2023-05-17T12:55:35;0.00;0.00;0.00
73749;PMS7003;62058;48.406;-4.514;2023-05-17T12:58:01;0.00;0.00;0.00
73749;PMS7003;62058;48.406;-4.514;2023-05-17T13:00:26;0.00;0.00;0.00
73749;PMS7003;62058;48.406;-4.514;2023-05-17T13:02:52;0.00;0.00;0.00
73749;PMS7003;62058;48.406;-4.514;2023-05-17T13:05:17;0.00;0.00;0.00
73749;PMS7003;62058;48.406;-4.514;2023-05-17T13:07:45;0.00;0.00;0.00
73749;PMS7003;62058;48.406;-4.514;2023-05-17T13:10:20;0.00;0.00;0.00
73749;PMS7003;62058;48.406;-4.514;2023-05-17T13:15:24;0.00;0.00;0.00
73749;PMS7003;62058;48.406;-4.514;2023-05-17T13:17:50;0.00;0.00;0.00
73749;PMS7003;62058;48.406;-4.514;2023-05-17T13:20:15;0.00;0.00;0.00
73749;PMS7003;62058;48.406;-4.514;2023-05-17T13:22:47;0.00;0.00;0.00
73749;PMS7003;62058;48.406;-4.514;2023-05-17T13:25:13;0.00;0.00;0.00
73749;PMS7003;62058;48.406;-4.514;2023-05-17T13:27:38;0.00;0.00;0.00
73749;PMS7003;62058;48.406;-4.514;2023-05-17T13:30:09;0.00;0.00;0.00
73749;PMS7003;62058;48.406;-4.514;2023-05-17T13:32:34;0.00;0.00;0.00
73749;PMS7003;62058;48.406;-4.514;2023-05-17T13:35:00;0.00;0.00;0.00
73749;PMS7003;62058;48.406;-4.514;2023-05-17T13:37:26;0.00;0.00;0.00
73749;PMS7003;62058;48.406;-4.514;2023-05-17T13:39:51;0.00;0.00;0.00
73749;PMS7003;62058;48.406;-4.514;2023-05-17T13:42:18;0.00;0.00;0.00
73749;PMS7003;62058;48.406;-4.514;2023-05-17T13:44:43;0.00;0.00;0.00
73749;PMS7003;62058;48.406;-4.514;2023-05-17T13:47:09;0.00;0.00;0.00
73749;PMS7003;62058;48.406;-4.514;2023-05-17T13:49:34;0.00;0.00;0.00
73749;PMS7003;62058;48.406;-4.514;2023-05-17T13:52:00;0.00;0.00;0.00
73749;PMS7003;62058;48.406;-4.514;2023-05-17T13:54:25;0.50;0.50;0.50
73749;PMS7003;62058;48.406;-4.514;2023-05-17T13:56:51;150.00;150.00;149.80
73749;PMS7003;62058;48.406;-4.514;2023-05-17T13:59:16;270.60;270.60;269.80
73749;PMS7003;62058;48.406;-4.514;2023-05-17T14:01:41;226.80;226.80;226.80
73749;PMS7003;62058;48.406;-4.514;2023-05-17T14:04:07;171.00;171.00;170.60
73749;PMS7003;62058;48.406;-4.514;2023-05-17T14:06:32;197.20;197.20;197.20
73749;PMS7003;62058;48.406;-4.514;2023-05-17T14:08:57;230.20;230.20;227.60
73749;PMS7003;62058;48.406;-4.514;2023-05-17T14:11:24;230.00;230.00;228.25
73749;PMS7003;62058;48.406;-4.514;2023-05-17T14:13:50;203.00;202.83;202.17
73749;PMS7003;62058;48.406;-4.514;2023-05-17T14:16:15;204.20;204.20;203.40
73749;PMS7003;62058;48.406;-4.514;2023-05-17T14:18:40;237.60;237.60;235.80
73749;PMS7003;62058;48.406;-4.514;2023-05-17T14:21:06;238.83;236.17;233.83
73749;PMS7003;62058;48.406;-4.514;2023-05-17T14:23:32;227.40;227.40;226.60
73749;PMS7003;62058;48.406;-4.514;2023-05-17T14:25:58;242.17;239.50;239.33
73749;PMS7003;62058;48.406;-4.514;2023-05-17T14:28:25;230.33;229.67;228.83
73749;PMS7003;62058;48.406;-4.514;2023-05-17T14:30:50;239.50;239.00;238.75
73749;PMS7003;62058;48.406;-4.514;2023-05-17T14:33:16;234.40;234.40;233.20